Petaca, New Mexico
Current Conditions -  °F | °C
As of 10:15 AM on Saturday 20 Dec 2014 (Local Time) from KSKX Reporting Station
Clear Clear  
Wind Chill: 25°   Ceiling: Unl
Heat Index: 25°   Visibility: 10mi
Dew Point: 18°   Wind: 3mph
Humidity: 74%   Direction: 360°N
Pressure: 30.16"   Gusts: NA
Location:  36.5°N, 106.01°W
Report Text: KSKX 201715Z AUTO 36003KT 10SM CLR M04/M08 A3016 RMK AO1
Loading
Personal Weather Stations






























Interactive Weather Map New forecast layout! Learn more

10-Day Weather Forecast

Advertisements
Track Severe Weather on mobile